createdAt,value
2023-04-02T00:00:11.168Z,96750.40
2023-04-02T00:02:56.826Z,96754.20
2023-04-02T00:05:30.171Z,96749.00
2023-04-02T00:08:22.256Z,96751.00
2023-04-02T00:10:51.763Z,96745.20
2023-04-02T00:13:18.266Z,96745.60
2023-04-02T00:15:49.688Z,96744.60
2023-04-02T00:18:21.231Z,96738.80
2023-04-02T00:21:09.018Z,96744.60
2023-04-02T00:23:40.895Z,96747.20
2023-04-02T00:26:37.777Z,96746.40
2023-04-02T00:29:07.500Z,96752.20
2023-04-02T00:31:39.100Z,96750.60
2023-04-02T00:34:09.982Z,96753.40
2023-04-02T00:36:37.607Z,96750.80
2023-04-02T00:39:32.887Z,96755.20
2023-04-02T00:42:06.000Z,96750.60
2023-04-02T00:44:43.690Z,96749.40
2023-04-02T00:47:24.893Z,96748.40
2023-04-02T00:50:01.358Z,96750.80
2023-04-02T00:52:31.839Z,96750.00
2023-04-02T00:55:22.782Z,96748.40
2023-04-02T00:57:51.908Z,96750.60
2023-04-02T01:00:35.093Z,96745.40
2023-04-02T01:03:29.242Z,96748.80
2023-04-02T01:06:13.146Z,96744.00
2023-04-02T01:09:12.557Z,96742.00
2023-04-02T01:11:41.841Z,96739.00
2023-04-02T01:14:29.607Z,96743.20
2023-04-02T01:17:15.513Z,96739.40
2023-04-02T01:20:35.736Z,96746.00
2023-04-02T01:23:16.984Z,96749.60
2023-04-02T01:26:12.526Z,96748.60
2023-04-02T01:29:01.550Z,96752.00
2023-04-02T01:31:31.082Z,96750.00
2023-04-02T01:33:57.882Z,96751.20
2023-04-02T01:36:43.503Z,96752.20
2023-04-02T01:39:29.784Z,96757.60
2023-04-02T01:42:36.410Z,96752.40
2023-04-02T01:45:09.025Z,96758.40
2023-04-02T01:47:35.907Z,96759.40
2023-04-02T01:50:19.129Z,96756.60
2023-04-02T01:52:51.362Z,96759.00
2023-04-02T01:55:49.886Z,96761.20
2023-04-02T01:58:25.322Z,96759.20
2023-04-02T02:01:02.079Z,96759.20
2023-04-02T02:03:30.259Z,96759.60
2023-04-02T02:05:57.929Z,96757.20
2023-04-02T02:08:46.029Z,96758.80
2023-04-02T02:11:24.231Z,96754.80
2023-04-02T02:14:12.002Z,96759.60
2023-04-02T02:16:42.074Z,96759.20
2023-04-02T02:19:25.417Z,96760.00
2023-04-02T02:21:56.370Z,96760.20
2023-04-02T02:24:31.855Z,96762.80
2023-04-02T02:27:12.330Z,96761.80
2023-04-02T02:29:43.609Z,96766.80
2023-04-02T02:32:12.888Z,96760.60
2023-04-02T02:34:49.801Z,96765.00
2023-04-02T02:37:25.060Z,96763.60
2023-04-02T02:39:59.488Z,96765.80
2023-04-02T02:42:54.979Z,96765.40
2023-04-02T02:45:28.164Z,96759.40
2023-04-02T02:47:56.987Z,96763.40
2023-04-02T02:50:31.693Z,96761.40
2023-04-02T02:53:04.749Z,96764.80
2023-04-02T02:55:36.939Z,96773.40
2023-04-02T02:58:31.940Z,96776.00
2023-04-02T03:01:18.652Z,96773.00
2023-04-02T03:03:47.982Z,96775.20
2023-04-02T03:06:20.633Z,96777.00
2023-04-02T03:09:38.264Z,96780.80
2023-04-02T03:12:51.332Z,96778.20
2023-04-02T03:15:47.511Z,96777.80
2023-04-02T03:18:31.745Z,96773.00
2023-04-02T03:21:12.108Z,96775.00
2023-04-02T03:23:47.279Z,96776.20
2023-04-02T03:26:23.847Z,96779.00
2023-04-02T03:29:00.743Z,96781.60
2023-04-02T03:31:41.941Z,96779.80
2023-04-02T03:34:23.732Z,96784.20
2023-04-02T03:36:59.520Z,96782.00
2023-04-02T03:39:38.882Z,96782.20
2023-04-02T03:42:25.210Z,96784.20
2023-04-02T03:45:05.544Z,96785.80
2023-04-02T03:47:42.875Z,96791.80
2023-04-02T03:50:19.364Z,96787.80
2023-04-02T03:52:46.197Z,96795.40
2023-04-02T03:55:30.504Z,96797.40
2023-04-02T03:58:20.622Z,96799.00
2023-04-02T04:01:12.330Z,96797.60
2023-04-02T04:03:45.846Z,96805.80
2023-04-02T04:06:34.829Z,96803.80
2023-04-02T04:09:11.975Z,96802.80
2023-04-02T04:11:46.666Z,96804.40
2023-04-02T04:14:45.423Z,96809.40
2023-04-02T04:17:30.081Z,96807.80
2023-04-02T04:20:14.849Z,96813.60
2023-04-02T04:22:41.840Z,96813.60
2023-04-02T04:25:29.825Z,96814.60
2023-04-02T04:28:21.404Z,96818.60
2023-04-02T04:31:11.014Z,96818.20
2023-04-02T04:33:50.476Z,96826.40
2023-04-02T04:36:31.457Z,96830.20
2023-04-02T04:39:14.632Z,96835.00
2023-04-02T04:41:47.192Z,96840.80
2023-04-02T04:44:23.669Z,96844.20
2023-04-02T04:47:03.844Z,96848.60
2023-04-02T04:49:44.879Z,96851.80
2023-04-02T04:52:23.762Z,96851.80
2023-04-02T04:54:50.399Z,96856.20
2023-04-02T04:57:39.936Z,96858.00
2023-04-02T05:00:50.984Z,96857.60
2023-04-02T05:03:31.293Z,96855.80
2023-04-02T05:06:34.380Z,96856.40
2023-04-02T05:09:20.197Z,96862.80
2023-04-02T05:12:31.130Z,96862.60
2023-04-02T05:15:32.685Z,96866.60
2023-04-02T05:18:41.827Z,96871.40
2023-04-02T05:21:33.217Z,96874.00
2023-04-02T05:24:37.506Z,96875.00
2023-04-02T05:27:33.687Z,96880.40
2023-04-02T05:30:15.760Z,96884.00
2023-04-02T05:33:17.868Z,96889.40
2023-04-02T05:35:49.555Z,96887.40
2023-04-02T05:38:23.701Z,96894.40
2023-04-02T05:41:00.627Z,96889.80
2023-04-02T05:43:31.762Z,96898.20
2023-04-02T05:46:07.851Z,96897.60
2023-04-02T05:48:43.351Z,96900.40
2023-04-02T05:51:22.063Z,96901.60
2023-04-02T05:53:59.519Z,96903.00
2023-04-02T05:56:40.548Z,96903.00
2023-04-02T05:59:37.395Z,96903.80
2023-04-02T06:02:33.461Z,96904.60
2023-04-02T06:05:15.062Z,96906.20
2023-04-02T06:07:54.386Z,96907.80
2023-04-02T06:10:46.249Z,96913.20
2023-04-02T06:13:18.536Z,96915.80
2023-04-02T06:15:47.869Z,96915.20
2023-04-02T06:18:25.945Z,96915.80
2023-04-02T06:20:54.200Z,96915.40
2023-04-02T06:23:40.344Z,96922.80
2023-04-02T06:26:47.835Z,96924.40
2023-04-02T06:29:39.563Z,96930.80
2023-04-02T06:32:11.933Z,96931.60
2023-04-02T06:34:42.551Z,96931.80
2023-04-02T06:37:36.424Z,96933.80
2023-04-02T06:40:33.934Z,96932.40
2023-04-02T06:43:18.324Z,96941.00
2023-04-02T06:46:57.611Z,96941.60
2023-04-02T06:49:45.923Z,96950.80
2023-04-02T06:52:29.148Z,96945.60
2023-04-02T06:54:56.995Z,96950.40
2023-04-02T06:57:23.995Z,96952.20
2023-04-02T06:59:52.038Z,96952.00
2023-04-02T07:02:38.677Z,96956.80
2023-04-02T07:05:09.472Z,96962.20
2023-04-02T07:07:39.458Z,96963.40
2023-04-02T07:10:09.355Z,96965.40
2023-04-02T07:12:36.156Z,96971.20
2023-04-02T07:15:03.815Z,96970.60
2023-04-02T07:17:30.706Z,96973.20
2023-04-02T07:19:57.368Z,96976.80
2023-04-02T07:22:25.639Z,96979.40
2023-04-02T07:24:55.862Z,96980.00
2023-04-02T07:27:22.521Z,96983.20
2023-04-02T07:29:49.139Z,96984.40
2023-04-02T07:32:15.934Z,96988.20
2023-04-02T07:34:42.612Z,96990.40
2023-04-02T07:37:14.509Z,96993.60
2023-04-02T07:39:41.487Z,96995.60
2023-04-02T07:42:08.127Z,96998.20
2023-04-02T07:44:34.853Z,97000.60
2023-04-02T07:47:01.699Z,96997.80
2023-04-02T07:49:28.536Z,97004.40
2023-04-02T07:51:55.133Z,97012.60
2023-04-02T07:54:21.799Z,97010.80
2023-04-02T07:56:48.418Z,97016.80
2023-04-02T07:59:15.040Z,97018.20
2023-04-02T08:01:42.903Z,97018.80
2023-04-02T08:04:19.534Z,97017.80
2023-04-02T08:06:47.415Z,97019.40
2023-04-02T08:09:17.581Z,97027.40
2023-04-02T08:11:46.356Z,97028.00
2023-04-02T08:14:12.978Z,97024.00
2023-04-02T08:16:55.643Z,97026.20
2023-04-02T08:19:22.729Z,97035.00
2023-04-02T08:21:51.591Z,97036.20
2023-04-02T08:24:19.760Z,97034.60
2023-04-02T08:26:48.795Z,97034.00
2023-04-02T08:29:16.010Z,97042.40
2023-04-02T08:31:42.651Z,97042.60
2023-04-02T08:34:09.977Z,97044.60
2023-04-02T08:36:41.232Z,97042.40
2023-04-02T08:39:12.612Z,97052.00
2023-04-02T08:41:54.898Z,97055.20
2023-04-02T08:44:45.466Z,97052.20
2023-04-02T08:47:15.445Z,97056.40
2023-04-02T08:49:58.906Z,97054.40
2023-04-02T08:52:30.445Z,97059.80
2023-04-02T08:54:58.110Z,97057.40
2023-04-02T08:57:51.612Z,97063.80
2023-04-02T09:00:41.623Z,97068.40
2023-04-02T09:03:20.731Z,97062.60
2023-04-02T09:05:50.832Z,97065.00
2023-04-02T09:08:22.257Z,97073.20
2023-04-02T09:11:21.542Z,97067.60
2023-04-02T09:13:55.959Z,97074.40
2023-04-02T09:16:43.425Z,97076.40
2023-04-02T09:19:26.342Z,97076.60
2023-04-02T09:22:05.964Z,97080.40
2023-04-02T09:24:33.902Z,97092.20
2023-04-02T09:27:00.674Z,97091.40
2023-04-02T09:29:43.265Z,97090.60
2023-04-02T09:32:41.277Z,97090.20
2023-04-02T09:35:26.052Z,97100.20
2023-04-02T09:38:17.672Z,97099.00
2023-04-02T09:41:19.832Z,97103.40
2023-04-02T09:43:46.541Z,97106.20
2023-04-02T09:46:13.124Z,97103.60
2023-04-02T09:48:54.344Z,97107.60
2023-04-02T09:51:34.590Z,97112.60
2023-04-02T09:54:04.197Z,97112.40
2023-04-02T09:56:39.669Z,97118.20
2023-04-02T09:59:15.115Z,97124.40
2023-04-02T10:01:55.272Z,97126.00
2023-04-02T10:04:48.153Z,97130.60
2023-04-02T10:07:39.678Z,97131.00
2023-04-02T10:10:36.788Z,97136.20
2023-04-02T10:13:08.322Z,97140.80
2023-04-02T10:15:55.881Z,97144.20
2023-04-02T10:18:33.665Z,97148.00
2023-04-02T10:21:04.460Z,97144.80
2023-04-02T10:23:32.311Z,97151.40
2023-04-02T10:26:36.133Z,97155.20
2023-04-02T10:30:02.131Z,97154.40
2023-04-02T10:32:53.825Z,97156.20
2023-04-02T10:35:49.591Z,97157.60
2023-04-02T10:38:28.288Z,97162.20
2023-04-02T10:41:06.894Z,97165.40
2023-04-02T10:43:36.513Z,97163.80
2023-04-02T10:46:19.630Z,97166.00
2023-04-02T10:49:03.714Z,97172.00
2023-04-02T10:51:48.795Z,97174.80
2023-04-02T10:54:43.150Z,97169.20
2023-04-02T10:57:28.074Z,97178.00
2023-04-02T11:00:10.817Z,97180.80
2023-04-02T11:03:27.909Z,97178.20
2023-04-02T11:05:59.986Z,97181.00
2023-04-02T11:08:40.386Z,97178.40
2023-04-02T11:11:22.554Z,97182.40
2023-04-02T11:14:26.327Z,97183.20
2023-04-02T11:16:58.157Z,97186.60
2023-04-02T11:19:33.552Z,97182.40
2023-04-02T11:22:06.677Z,97184.80
2023-04-02T11:24:51.083Z,97186.40
2023-04-02T11:27:36.084Z,97188.80
2023-04-02T11:30:24.313Z,97185.60
2023-04-02T11:32:51.245Z,97185.00
2023-04-02T11:35:32.915Z,97186.20
2023-04-02T11:38:09.417Z,97188.40
2023-04-02T11:40:50.466Z,97191.60
2023-04-02T11:43:35.763Z,97196.40
2023-04-02T11:46:39.746Z,97203.20
2023-04-02T11:49:39.551Z,97200.20
2023-04-02T11:52:38.883Z,97200.80
2023-04-02T11:55:27.125Z,97207.20
2023-04-02T11:58:41.256Z,97209.00
2023-04-02T12:01:53.924Z,97209.60
2023-04-02T12:04:38.470Z,97207.60
2023-04-02T12:07:17.508Z,97214.60
2023-04-02T12:10:00.768Z,97213.80
2023-04-02T12:12:36.423Z,97222.40
2023-04-02T12:15:08.456Z,97222.20
2023-04-02T12:17:39.122Z,97222.20
2023-04-02T12:20:13.652Z,97223.00
2023-04-02T12:22:50.738Z,97227.40
2023-04-02T12:25:31.624Z,97230.60
2023-04-02T12:28:10.253Z,97230.40
2023-04-02T12:30:38.734Z,97235.20
2023-04-02T12:33:41.490Z,97232.80
2023-04-02T12:36:21.506Z,97237.00
2023-04-02T12:38:54.769Z,97236.00
2023-04-02T12:41:24.270Z,97240.40
2023-04-02T12:44:03.306Z,97244.80
2023-04-02T12:46:33.546Z,97251.00
2023-04-02T12:49:20.497Z,97253.00
2023-04-02T12:51:48.430Z,97244.60
2023-04-02T12:54:20.691Z,97247.40
2023-04-02T12:56:49.000Z,97248.80
2023-04-02T12:59:39.035Z,97250.20
2023-04-02T13:02:25.068Z,97249.80
2023-04-02T13:05:00.762Z,97251.40
2023-04-02T13:07:32.200Z,97253.80
2023-04-02T13:10:01.565Z,97252.20
2023-04-02T13:12:33.545Z,97256.00
2023-04-02T13:15:04.791Z,97257.80
2023-04-02T13:17:42.424Z,97261.20
2023-04-02T13:20:30.603Z,97259.60
2023-04-02T13:22:59.219Z,97262.60
2023-04-02T13:25:34.593Z,97267.60
2023-04-02T13:28:02.219Z,97271.40
2023-04-02T13:30:29.489Z,97273.80
2023-04-02T13:32:56.498Z,97277.20
2023-04-02T13:35:23.396Z,97275.40
2023-04-02T13:37:50.157Z,97279.20
2023-04-02T13:40:19.220Z,97274.60
2023-04-02T13:42:48.671Z,97280.40
2023-04-02T13:45:26.075Z,97279.20
2023-04-02T13:47:53.862Z,97277.40
2023-04-02T13:50:23.913Z,97284.60
2023-04-02T13:52:52.011Z,97293.40
2023-04-02T13:55:27.948Z,97289.60
2023-04-02T13:57:56.827Z,97300.20
2023-04-02T14:00:24.077Z,97306.60
2023-04-02T14:03:04.388Z,97308.40
2023-04-02T14:06:28.145Z,97319.40
2023-04-02T14:09:06.951Z,97316.00
2023-04-02T14:11:54.718Z,97315.40
2023-04-02T14:15:16.305Z,97320.20
2023-04-02T14:18:10.497Z,97328.80
2023-04-02T14:21:07.867Z,97330.80
2023-04-02T14:24:05.948Z,97333.00
2023-04-02T14:27:32.654Z,97339.00
2023-04-02T14:30:17.305Z,97339.20
2023-04-02T14:33:28.459Z,97344.80
2023-04-02T14:36:29.416Z,97344.40
2023-04-02T14:39:09.128Z,97352.20
2023-04-02T14:42:01.741Z,97360.00
2023-04-02T14:44:38.394Z,97362.20
2023-04-02T14:47:21.797Z,97361.80
2023-04-02T14:49:55.099Z,97366.80
2023-04-02T14:52:26.544Z,97368.40
2023-04-02T14:55:02.365Z,97369.80
2023-04-02T14:57:49.011Z,97372.40
2023-04-02T15:00:49.190Z,97374.40
2023-04-02T15:03:25.846Z,97380.00
2023-04-02T15:06:04.652Z,97382.20
2023-04-02T15:09:02.110Z,97385.40
2023-04-02T15:11:38.593Z,97390.40
2023-04-02T15:14:35.392Z,97394.00
2023-04-02T15:17:01.986Z,97399.40
2023-04-02T15:19:28.642Z,97401.80
2023-04-02T15:22:25.187Z,97405.20
2023-04-02T15:24:57.715Z,97406.60
2023-04-02T15:28:18.358Z,97408.40
2023-04-02T15:30:46.418Z,97414.60
2023-04-02T15:33:28.123Z,97420.80
2023-04-02T15:36:41.024Z,97421.40
2023-04-02T15:40:22.612Z,97424.60
2023-04-02T15:43:20.588Z,97432.20
2023-04-02T15:46:17.377Z,97432.40
2023-04-02T15:49:17.195Z,97435.20
2023-04-02T15:52:27.284Z,97441.00
2023-04-02T15:55:57.202Z,97450.00
2023-04-02T15:59:21.461Z,97453.60
2023-04-02T16:02:18.144Z,97459.20
2023-04-02T16:05:13.137Z,97459.80
2023-04-02T16:07:51.816Z,97467.80
2023-04-02T16:10:40.375Z,97472.60
2023-04-02T16:13:35.717Z,97478.60
2023-04-02T16:16:22.627Z,97487.40
2023-04-02T16:19:16.379Z,97491.00
2023-04-02T16:21:54.519Z,97499.00
2023-04-02T16:24:22.555Z,97504.20
2023-04-02T16:26:57.578Z,97506.20
2023-04-02T16:29:55.289Z,97513.80
2023-04-02T16:33:06.276Z,97516.80
2023-04-02T16:36:01.534Z,97523.60
2023-04-02T16:38:54.109Z,97525.80
2023-04-02T16:41:39.051Z,97528.60
2023-04-02T16:44:17.479Z,97529.80
2023-04-02T16:47:25.995Z,97538.60
2023-04-02T16:50:27.728Z,97542.60
2023-04-02T16:53:27.587Z,97547.40
2023-04-02T16:56:12.690Z,97552.60
2023-04-02T16:59:07.166Z,97553.80
2023-04-02T17:02:03.648Z,97557.80
2023-04-02T17:04:46.593Z,97560.80
2023-04-02T17:07:34.636Z,97565.80
2023-04-02T17:10:30.099Z,97568.40
2023-04-02T17:13:25.520Z,97573.80
2023-04-02T17:16:44.778Z,97578.20
2023-04-02T17:19:14.823Z,97591.60
2023-04-02T17:21:47.023Z,97597.20
2023-04-02T17:24:14.206Z,97600.80
2023-04-02T17:26:43.504Z,97603.40
2023-04-02T17:29:23.415Z,97609.60
2023-04-02T17:31:52.153Z,97617.40
2023-04-02T17:34:23.794Z,97621.80
2023-04-02T17:37:32.438Z,97632.20
2023-04-02T17:40:08.326Z,97641.40
2023-04-02T17:42:52.384Z,97647.40
2023-04-02T17:45:49.370Z,97651.00
2023-04-02T17:49:02.082Z,97656.60
2023-04-02T17:51:57.499Z,97655.00
2023-04-02T17:55:05.316Z,97661.60
2023-04-02T17:57:47.492Z,97672.00
2023-04-02T18:00:36.921Z,97674.60
2023-04-02T18:03:40.521Z,97680.40
2023-04-02T18:06:39.194Z,97687.40
2023-04-02T18:09:46.775Z,97692.60
2023-04-02T18:12:55.216Z,97695.20
2023-04-02T18:15:24.741Z,97701.80
2023-04-02T18:18:10.967Z,97702.20
2023-04-02T18:21:00.859Z,97708.80
2023-04-02T18:23:39.432Z,97710.60
2023-04-02T18:26:22.690Z,97718.20
2023-04-02T18:29:23.011Z,97722.60
2023-04-02T18:32:46.241Z,97730.00
2023-04-02T18:35:29.405Z,97734.00
2023-04-02T18:38:17.705Z,97735.60
2023-04-02T18:41:29.139Z,97742.80
2023-04-02T18:44:37.472Z,97747.80
2023-04-02T18:47:27.238Z,97753.00
2023-04-02T18:50:16.398Z,97755.00
2023-04-02T18:52:43.044Z,97761.80
2023-04-02T18:55:21.704Z,97772.80
2023-04-02T18:58:16.845Z,97765.40
2023-04-02T19:00:46.147Z,97778.80
2023-04-02T19:03:25.076Z,97786.20
2023-04-02T19:06:21.121Z,97788.00
2023-04-02T19:09:13.539Z,97795.60
2023-04-02T19:11:40.190Z,97795.40
2023-04-02T19:14:20.102Z,97799.80
2023-04-02T19:17:43.540Z,97807.60
2023-04-02T19:20:58.785Z,97813.60
2023-04-02T19:24:27.267Z,97815.40
2023-04-02T19:27:18.295Z,97816.80
2023-04-02T19:30:16.865Z,97822.00
2023-04-02T19:33:20.333Z,97828.00
2023-04-02T19:36:03.051Z,97827.40
2023-04-02T19:38:54.612Z,97828.60
2023-04-02T19:41:36.227Z,97832.00
2023-04-02T19:44:02.994Z,97840.40
2023-04-02T19:46:29.841Z,97845.00
2023-04-02T19:48:59.785Z,97848.00
2023-04-02T19:51:27.121Z,97852.80
2023-04-02T19:53:53.720Z,97852.60
2023-04-02T19:56:21.891Z,97860.80
2023-04-02T19:58:48.646Z,97862.40
2023-04-02T20:01:15.369Z,97860.00
2023-04-02T20:03:42.125Z,97867.40
2023-04-02T20:06:08.890Z,97871.60
2023-04-02T20:08:36.281Z,97874.20
2023-04-02T20:11:03.476Z,97877.60
2023-04-02T20:13:30.216Z,97879.40
2023-04-02T20:16:02.308Z,97879.00
2023-04-02T20:18:30.555Z,97884.40
2023-04-02T20:20:57.617Z,97886.20
2023-04-02T20:23:24.601Z,97890.20
2023-04-02T20:25:56.343Z,97893.40
2023-04-02T20:28:26.263Z,97894.60
2023-04-02T20:30:53.132Z,97899.80
2023-04-02T20:33:23.294Z,97905.00
2023-04-02T20:35:51.791Z,97911.00
2023-04-02T20:38:19.193Z,97915.00
2023-04-02T20:40:52.009Z,97918.40
2023-04-02T20:43:18.976Z,97923.20
2023-04-02T20:45:57.997Z,97924.80
2023-04-02T20:48:30.635Z,97930.40
2023-04-02T20:50:57.607Z,97932.60
2023-04-02T20:53:25.647Z,97935.20
2023-04-02T20:55:52.182Z,97938.60
2023-04-02T20:58:19.085Z,97942.40
2023-04-02T21:00:46.020Z,97944.60
2023-04-02T21:03:12.664Z,97942.60
2023-04-02T21:05:44.843Z,97947.40
2023-04-02T21:08:12.264Z,97949.80
2023-04-02T21:10:40.018Z,97950.80
2023-04-02T21:13:07.095Z,97955.20
2023-04-02T21:15:34.063Z,97955.80
2023-04-02T21:18:01.329Z,97958.60
2023-04-02T21:20:27.956Z,97961.20
2023-04-02T21:22:54.692Z,97962.40
2023-04-02T21:25:21.285Z,97964.40
2023-04-02T21:27:47.909Z,97965.80
2023-04-02T21:30:14.672Z,97963.40
2023-04-02T21:32:41.378Z,97965.60
2023-04-02T21:35:08.933Z,97972.00
2023-04-02T21:37:36.063Z,97969.60
2023-04-02T21:40:03.842Z,97971.60
2023-04-02T21:42:30.528Z,97973.20
2023-04-02T21:44:57.102Z,97975.00
2023-04-02T21:47:24.311Z,97974.60
2023-04-02T21:49:50.901Z,97985.40
2023-04-02T21:52:17.474Z,97980.40
2023-04-02T21:54:44.050Z,97986.20
2023-04-02T21:57:10.772Z,97987.80
2023-04-02T21:59:37.446Z,97990.80
2023-04-02T22:02:04.823Z,97991.60
2023-04-02T22:04:33.332Z,97996.60
2023-04-02T22:07:00.381Z,97996.80
2023-04-02T22:09:27.518Z,98005.80
2023-04-02T22:12:01.680Z,98008.40
2023-04-02T22:14:28.910Z,98012.60
2023-04-02T22:16:55.582Z,98016.80
2023-04-02T22:19:22.554Z,98012.60
2023-04-02T22:21:49.370Z,98018.20
2023-04-02T22:24:18.909Z,98017.80
2023-04-02T22:26:46.784Z,98019.20
2023-04-02T22:29:13.903Z,98021.20
2023-04-02T22:31:40.928Z,98021.60
2023-04-02T22:34:07.804Z,98024.40
2023-04-02T22:36:35.077Z,98022.40
2023-04-02T22:39:06.667Z,98016.60
2023-04-02T22:41:33.609Z,98018.40
2023-04-02T22:44:01.329Z,98021.80
2023-04-02T22:46:30.120Z,98020.80
2023-04-02T22:48:57.013Z,98021.40
2023-04-02T22:51:25.595Z,98027.00
2023-04-02T22:53:55.450Z,98027.00
2023-04-02T22:56:32.181Z,98025.80
2023-04-02T22:58:59.335Z,98026.00
2023-04-02T23:01:30.805Z,98025.00
2023-04-02T23:03:57.803Z,98026.40
2023-04-02T23:06:25.504Z,98030.20
2023-04-02T23:08:53.275Z,98034.60
2023-04-02T23:11:23.915Z,98035.00
2023-04-02T23:13:54.271Z,98036.00
2023-04-02T23:16:22.570Z,98041.60
2023-04-02T23:18:49.769Z,98036.20
2023-04-02T23:21:19.448Z,98034.00
2023-04-02T23:23:47.903Z,98034.60
2023-04-02T23:26:26.438Z,98038.00
2023-04-02T23:28:53.086Z,98038.60
2023-04-02T23:31:22.474Z,98037.20
2023-04-02T23:33:50.669Z,98038.40
2023-04-02T23:36:24.036Z,98038.80
2023-04-02T23:38:57.167Z,98035.80
2023-04-02T23:41:27.137Z,98033.60
2023-04-02T23:43:56.148Z,98036.60
2023-04-02T23:46:24.793Z,98033.00
2023-04-02T23:48:52.746Z,98039.20
2023-04-02T23:51:19.999Z,98035.20
2023-04-02T23:53:47.553Z,98032.20
2023-04-02T23:56:14.147Z,98030.40
2023-04-02T23:58:40.856Z,98028.00
